createdAt,value
2017-09-29T00:00:09.204Z,121.90
2017-09-29T00:01:29.701Z,126.40
2017-09-29T00:02:50.479Z,125.30
2017-09-29T00:04:12.054Z,128.30
2017-09-29T00:05:33.953Z,123.30
2017-09-29T00:06:54.408Z,117.90
2017-09-29T00:08:15.325Z,115.50
2017-09-29T00:09:35.828Z,112.40
2017-09-29T00:10:56.123Z,114.30
2017-09-29T00:12:16.704Z,115.80
2017-09-29T00:13:37.341Z,114.30
2017-09-29T00:14:57.777Z,108.80
2017-09-29T00:16:18.815Z,104.70
2017-09-29T00:17:39.168Z,103.60
2017-09-29T00:19:00.107Z,105.00
2017-09-29T00:20:20.498Z,102.50
2017-09-29T00:21:41.200Z,105.20
2017-09-29T00:23:01.876Z,102.70
2017-09-29T00:24:22.731Z,100.60
2017-09-29T00:25:43.913Z,102.20
2017-09-29T00:27:04.253Z,101.40
2017-09-29T00:28:24.734Z,98.10
2017-09-29T00:29:45.269Z,95.10
2017-09-29T00:31:05.725Z,97.80
2017-09-29T00:32:26.130Z,96.80
2017-09-29T00:33:46.851Z,98.10
2017-09-29T00:35:08.620Z,96.10
2017-09-29T00:36:29.219Z,98.20
2017-09-29T00:37:49.682Z,94.30
2017-09-29T00:39:10.204Z,99.40
2017-09-29T00:40:30.999Z,97.20
2017-09-29T00:41:51.380Z,94.50
2017-09-29T00:43:12.456Z,97.00
2017-09-29T00:45:49.873Z,96.70
2017-09-29T00:47:10.383Z,99.70
2017-09-29T00:48:31.043Z,98.90
2017-09-29T00:49:51.380Z,102.90
2017-09-29T00:51:12.047Z,100.40
2017-09-29T00:52:33.190Z,99.70
2017-09-29T00:53:54.052Z,103.70
2017-09-29T00:55:14.978Z,100.30
2017-09-29T00:56:37.353Z,97.30
2017-09-29T00:57:58.003Z,96.90
2017-09-29T00:59:18.699Z,93.40
2017-09-29T01:00:40.137Z,98.30
2017-09-29T01:02:00.901Z,95.80
2017-09-29T01:03:21.451Z,93.00
2017-09-29T01:04:41.858Z,96.30
2017-09-29T01:06:02.442Z,95.30
2017-09-29T01:07:23.198Z,94.50
2017-09-29T01:08:43.804Z,92.60
2017-09-29T01:10:05.190Z,93.40
2017-09-29T01:11:25.768Z,91.20
2017-09-29T01:12:46.667Z,94.30
2017-09-29T01:14:08.051Z,94.30
2017-09-29T01:15:28.628Z,90.60
2017-09-29T01:16:49.071Z,97.30
2017-09-29T01:18:10.780Z,99.40
2017-09-29T01:19:31.450Z,97.80
2017-09-29T01:20:51.857Z,99.00
2017-09-29T01:22:12.572Z,98.70
2017-09-29T01:23:33.238Z,100.00
2017-09-29T01:24:54.637Z,98.50
2017-09-29T01:26:15.056Z,99.40
2017-09-29T01:27:37.603Z,105.40
2017-09-29T01:28:58.580Z,113.40
2017-09-29T01:30:19.483Z,116.60
2017-09-29T01:31:39.919Z,116.20
2017-09-29T01:33:00.586Z,117.70
2017-09-29T01:34:21.781Z,119.60
2017-09-29T01:35:42.383Z,120.80
2017-09-29T01:37:03.099Z,116.30
2017-09-29T01:38:23.851Z,124.90
2017-09-29T01:39:44.310Z,119.30
2017-09-29T01:41:05.384Z,126.30
2017-09-29T01:42:26.017Z,126.20
2017-09-29T01:43:46.527Z,124.30
2017-09-29T01:45:08.176Z,122.60
2017-09-29T01:46:28.603Z,127.40
2017-09-29T01:47:49.113Z,131.00
2017-09-29T01:49:09.734Z,125.30
2017-09-29T01:50:30.407Z,125.10
2017-09-29T01:51:51.144Z,128.70
2017-09-29T01:53:11.740Z,123.10
2017-09-29T01:54:32.343Z,116.60
2017-09-29T01:55:53.259Z,105.20
2017-09-29T01:57:13.968Z,102.60
2017-09-29T01:58:34.455Z,99.50
2017-09-29T01:59:55.134Z,100.70
2017-09-29T02:01:15.936Z,102.70
2017-09-29T02:02:36.566Z,101.70
2017-09-29T02:03:57.207Z,105.90
2017-09-29T02:05:17.897Z,110.30
2017-09-29T02:06:39.705Z,109.30
2017-09-29T02:08:00.325Z,112.20
2017-09-29T02:09:21.480Z,112.60
2017-09-29T02:10:41.961Z,116.90
2017-09-29T02:12:02.617Z,122.70
2017-09-29T02:13:23.211Z,120.80
2017-09-29T02:14:44.185Z,121.70
2017-09-29T02:16:04.668Z,122.90
2017-09-29T02:17:26.024Z,130.20
2017-09-29T02:18:46.664Z,132.80
2017-09-29T02:20:07.392Z,129.30
2017-09-29T02:21:29.178Z,129.80
2017-09-29T02:22:50.056Z,127.30
2017-09-29T02:24:10.867Z,133.30
2017-09-29T02:25:32.054Z,137.60
2017-09-29T02:26:52.658Z,142.80
2017-09-29T02:28:13.382Z,141.40
2017-09-29T02:29:34.701Z,141.40
2017-09-29T02:30:55.486Z,144.60
2017-09-29T02:32:16.150Z,142.40
2017-09-29T02:33:37.268Z,145.80
2017-09-29T02:36:06.875Z,0.00
2017-09-29T02:37:27.555Z,143.20
2017-09-29T02:38:50.286Z,141.50
2017-09-29T02:40:10.984Z,138.90
2017-09-29T02:41:31.549Z,138.00
2017-09-29T02:42:52.155Z,143.30
2017-09-29T02:44:12.817Z,135.20
2017-09-29T02:45:33.324Z,142.80
2017-09-29T02:46:54.301Z,142.10
2017-09-29T02:48:14.913Z,144.00
2017-09-29T02:49:35.413Z,147.60
2017-09-29T02:50:56.630Z,143.50
2017-09-29T02:52:17.538Z,141.80
2017-09-29T02:53:38.056Z,143.80
2017-09-29T02:54:59.561Z,145.40
2017-09-29T02:56:20.248Z,144.20
2017-09-29T02:57:40.825Z,140.70
2017-09-29T02:59:01.298Z,142.70
2017-09-29T03:00:21.885Z,148.10
2017-09-29T03:01:42.475Z,143.90
2017-09-29T03:03:02.979Z,141.00
2017-09-29T03:04:23.553Z,142.30
2017-09-29T03:05:44.417Z,139.30
2017-09-29T03:07:05.127Z,139.00
2017-09-29T03:08:26.906Z,136.60
2017-09-29T03:09:47.418Z,142.10
2017-09-29T03:11:08.127Z,145.10
2017-09-29T03:12:28.641Z,142.10
2017-09-29T03:13:49.204Z,145.70
2017-09-29T03:15:09.829Z,140.80
2017-09-29T03:16:30.966Z,146.80
2017-09-29T03:17:51.517Z,149.70
2017-09-29T03:19:12.127Z,147.40
2017-09-29T03:20:32.596Z,145.90
2017-09-29T03:21:55.252Z,143.40
2017-09-29T03:23:15.784Z,149.00
2017-09-29T03:24:36.633Z,142.90
2017-09-29T03:25:57.118Z,149.90
2017-09-29T03:27:17.922Z,151.20
2017-09-29T03:28:38.594Z,145.40
2017-09-29T03:29:59.143Z,143.70
2017-09-29T03:31:19.680Z,138.90
2017-09-29T03:32:40.075Z,153.60
2017-09-29T03:34:00.582Z,151.60
2017-09-29T03:35:21.057Z,146.20
2017-09-29T03:36:41.596Z,143.20
2017-09-29T03:38:02.309Z,138.30
2017-09-29T03:39:23.162Z,136.60
2017-09-29T03:40:44.308Z,135.90
2017-09-29T03:42:04.834Z,137.80
2017-09-29T03:43:25.450Z,136.40
2017-09-29T03:44:46.226Z,129.80
2017-09-29T03:46:06.809Z,132.10
2017-09-29T03:47:27.335Z,133.90
2017-09-29T03:48:48.105Z,127.80
2017-09-29T03:50:08.658Z,126.40
2017-09-29T03:51:29.203Z,129.30
2017-09-29T03:52:49.649Z,127.60
2017-09-29T03:54:10.751Z,127.00
2017-09-29T03:55:31.405Z,127.10
2017-09-29T03:56:51.870Z,126.30
2017-09-29T03:58:12.379Z,125.00
2017-09-29T03:59:33.369Z,124.60
2017-09-29T04:00:55.005Z,125.70
2017-09-29T04:02:16.377Z,122.70
2017-09-29T04:03:36.902Z,120.10
2017-09-29T04:04:57.975Z,115.90
2017-09-29T04:06:18.469Z,121.40
2017-09-29T04:07:39.055Z,118.50
2017-09-29T04:08:59.537Z,119.20
2017-09-29T04:10:20.517Z,118.60
2017-09-29T04:11:40.933Z,117.60
2017-09-29T04:13:01.360Z,118.50
2017-09-29T04:14:22.098Z,117.30
2017-09-29T04:15:42.898Z,121.20
2017-09-29T04:17:03.656Z,122.70
2017-09-29T04:18:24.212Z,120.80
2017-09-29T04:19:44.895Z,122.50
2017-09-29T04:21:05.622Z,125.30
2017-09-29T04:22:26.346Z,126.10
2017-09-29T04:23:46.943Z,128.00
2017-09-29T04:25:07.612Z,122.90
2017-09-29T04:26:28.528Z,122.40
2017-09-29T04:27:49.048Z,122.40
2017-09-29T04:29:09.782Z,120.00
2017-09-29T04:30:30.470Z,118.30
2017-09-29T04:31:50.971Z,111.40
2017-09-29T04:34:38.640Z,113.50
2017-09-29T04:35:59.096Z,106.50
2017-09-29T04:37:20.041Z,108.70
2017-09-29T04:38:40.762Z,106.70
2017-09-29T04:40:01.147Z,106.20
2017-09-29T04:41:21.579Z,107.10
2017-09-29T04:42:42.528Z,104.80
2017-09-29T04:44:02.996Z,106.40
2017-09-29T04:45:23.612Z,110.30
2017-09-29T04:46:44.153Z,107.90
2017-09-29T04:48:04.831Z,105.60
2017-09-29T04:49:25.227Z,102.70
2017-09-29T04:50:46.601Z,101.90
2017-09-29T04:52:07.870Z,100.30
2017-09-29T04:53:28.332Z,100.00
2017-09-29T04:54:49.570Z,99.90
2017-09-29T04:56:10.084Z,102.90
2017-09-29T04:57:30.639Z,101.20
2017-09-29T04:58:51.996Z,103.30
2017-09-29T05:00:12.451Z,109.00
2017-09-29T05:01:32.856Z,105.00
2017-09-29T05:02:53.510Z,101.00
2017-09-29T05:04:14.293Z,102.90
2017-09-29T05:05:35.249Z,95.80
2017-09-29T05:06:55.734Z,99.40
2017-09-29T05:08:16.547Z,100.60
2017-09-29T05:09:37.134Z,93.20
2017-09-29T05:10:57.660Z,98.40
2017-09-29T05:12:18.204Z,95.80
2017-09-29T05:13:39.786Z,98.60
2017-09-29T05:15:00.411Z,97.50
2017-09-29T05:16:21.085Z,96.90
2017-09-29T05:17:42.282Z,98.20
2017-09-29T05:19:02.766Z,95.40
2017-09-29T05:20:23.289Z,92.10
2017-09-29T05:21:43.719Z,95.20
2017-09-29T05:23:04.412Z,91.20
2017-09-29T05:24:26.812Z,89.80
2017-09-29T05:25:47.783Z,97.90
2017-09-29T05:27:09.371Z,97.20
2017-09-29T05:28:29.823Z,91.40
2017-09-29T05:29:50.333Z,86.90
2017-09-29T05:31:11.610Z,94.30
2017-09-29T05:32:31.993Z,93.50
2017-09-29T05:33:52.639Z,96.00
2017-09-29T05:35:13.220Z,96.00
2017-09-29T05:36:34.736Z,97.10
2017-09-29T05:37:55.501Z,97.90
2017-09-29T05:39:16.568Z,94.20
2017-09-29T05:40:37.205Z,99.60
2017-09-29T05:42:00.020Z,100.20
2017-09-29T05:43:20.622Z,105.00
2017-09-29T05:44:41.739Z,98.00
2017-09-29T05:46:03.787Z,96.50
2017-09-29T05:47:26.561Z,0.00
2017-09-29T05:58:50.944Z,100.50
2017-09-29T06:00:11.873Z,96.60
2017-09-29T06:01:32.876Z,99.90
2017-09-29T06:02:55.625Z,104.30
2017-09-29T06:04:17.086Z,101.80
2017-09-29T06:07:01.709Z,92.90
2017-09-29T06:08:23.006Z,90.50
2017-09-29T06:09:44.860Z,89.50
2017-09-29T06:11:05.837Z,91.30
2017-09-29T06:12:27.383Z,96.30
2017-09-29T06:13:48.392Z,91.90
2017-09-29T06:15:10.700Z,97.00
2017-09-29T06:16:32.938Z,0.00
2017-09-29T06:17:53.665Z,94.40
2017-09-29T06:19:16.461Z,90.10
2017-09-29T06:20:39.460Z,100.10
2017-09-29T06:22:00.973Z,99.60
2017-09-29T06:23:22.435Z,95.40
2017-09-29T06:24:43.088Z,89.60
2017-09-29T06:26:04.220Z,94.50
2017-09-29T06:27:25.139Z,87.30
2017-09-29T06:28:46.631Z,86.80
2017-09-29T06:30:07.521Z,85.20
2017-09-29T06:31:28.287Z,85.90
2017-09-29T06:32:49.094Z,79.50
2017-09-29T06:34:10.088Z,84.10
2017-09-29T06:35:31.858Z,79.30
2017-09-29T06:36:55.533Z,82.30
2017-09-29T06:38:17.408Z,77.40
2017-09-29T06:39:40.706Z,81.10
2017-09-29T06:41:02.196Z,79.60
2017-09-29T06:42:24.263Z,79.50
2017-09-29T06:43:46.625Z,84.50
2017-09-29T06:45:09.168Z,80.00
2017-09-29T06:46:30.436Z,78.60
2017-09-29T06:47:51.384Z,77.40
2017-09-29T06:49:13.047Z,76.70
2017-09-29T06:50:41.709Z,74.90
2017-09-29T06:52:03.109Z,78.20
2017-09-29T06:53:23.952Z,78.10
2017-09-29T06:54:44.717Z,77.00
2017-09-29T06:56:05.682Z,75.20
2017-09-29T06:57:27.136Z,74.10
2017-09-29T06:58:48.062Z,76.70
2017-09-29T07:00:08.923Z,72.40
2017-09-29T07:01:30.550Z,69.00
2017-09-29T07:02:53.051Z,69.30
2017-09-29T07:04:13.803Z,76.70
2017-09-29T07:05:34.492Z,74.30
2017-09-29T07:06:55.440Z,79.90
2017-09-29T07:08:16.183Z,78.30
2017-09-29T07:09:37.218Z,73.30
2017-09-29T07:10:57.974Z,73.00
2017-09-29T07:12:18.966Z,75.40
2017-09-29T07:13:39.784Z,68.20
2017-09-29T07:15:00.784Z,68.60
2017-09-29T07:16:21.786Z,69.50
2017-09-29T07:17:43.147Z,71.40
2017-09-29T07:19:05.523Z,71.00
2017-09-29T07:20:27.251Z,72.10
2017-09-29T07:21:48.657Z,71.30
2017-09-29T07:23:10.829Z,70.70
2017-09-29T07:26:16.366Z,66.70
2017-09-29T07:27:38.636Z,71.80
2017-09-29T07:29:00.214Z,70.50
2017-09-29T07:30:21.505Z,66.60
2017-09-29T07:31:42.588Z,66.20
2017-09-29T07:33:03.877Z,66.80
2017-09-29T07:34:25.004Z,65.80
2017-09-29T07:35:46.236Z,67.10
2017-09-29T07:37:07.331Z,66.80
2017-09-29T07:38:33.642Z,65.30
2017-09-29T07:39:54.709Z,70.60
2017-09-29T07:41:15.686Z,74.90
2017-09-29T07:42:36.954Z,82.40
2017-09-29T07:43:57.960Z,70.10
2017-09-29T07:45:19.135Z,71.70
2017-09-29T07:46:40.147Z,67.80
2017-09-29T07:48:01.083Z,71.90
2017-09-29T07:49:22.207Z,64.50
2017-09-29T07:50:43.273Z,63.50
2017-09-29T07:52:04.330Z,66.10
2017-09-29T07:53:25.569Z,64.20
2017-09-29T07:54:46.791Z,71.30
2017-09-29T07:56:07.953Z,64.80
2017-09-29T07:57:29.022Z,64.00
2017-09-29T07:58:50.738Z,61.90
2017-09-29T08:00:11.824Z,66.10
2017-09-29T08:01:32.709Z,69.10
2017-09-29T08:02:59.637Z,57.20
2017-09-29T08:04:20.600Z,58.70
2017-09-29T08:05:41.471Z,58.40
2017-09-29T08:07:03.957Z,58.20
2017-09-29T08:08:24.966Z,61.40
2017-09-29T08:09:46.513Z,58.10
2017-09-29T08:11:07.579Z,59.50
2017-09-29T08:12:28.575Z,60.90
2017-09-29T08:13:49.604Z,61.10
2017-09-29T08:15:10.449Z,58.90
2017-09-29T08:16:31.427Z,60.90
2017-09-29T08:17:53.203Z,60.50
2017-09-29T08:19:14.238Z,61.10
2017-09-29T08:20:35.081Z,56.30
2017-09-29T08:21:56.121Z,58.00
2017-09-29T08:23:17.102Z,59.50
2017-09-29T08:24:38.095Z,57.70
2017-09-29T08:25:58.882Z,58.20
2017-09-29T08:27:19.963Z,55.70
2017-09-29T08:28:41.621Z,59.50
2017-09-29T08:30:02.720Z,60.90
2017-09-29T08:31:23.777Z,59.10
2017-09-29T08:32:45.288Z,59.00
2017-09-29T08:34:06.335Z,57.40
2017-09-29T08:35:27.361Z,56.30
2017-09-29T08:36:48.273Z,57.30
2017-09-29T08:38:09.580Z,61.10
2017-09-29T08:39:31.299Z,58.80
2017-09-29T08:40:52.276Z,62.30
2017-09-29T08:42:14.184Z,61.70
2017-09-29T08:43:35.853Z,60.70
2017-09-29T08:44:56.862Z,54.90
2017-09-29T08:46:17.819Z,59.30
2017-09-29T08:47:38.924Z,58.70
2017-09-29T08:48:59.818Z,58.70
2017-09-29T08:50:20.648Z,60.60
2017-09-29T08:51:41.504Z,58.80
2017-09-29T08:53:02.435Z,61.60
2017-09-29T08:54:23.177Z,58.20
2017-09-29T08:55:43.992Z,57.20
2017-09-29T08:57:04.771Z,59.90
2017-09-29T08:58:25.620Z,60.00
2017-09-29T08:59:46.325Z,54.00
2017-09-29T09:01:07.147Z,52.00
2017-09-29T09:02:27.991Z,71.50
2017-09-29T09:03:48.914Z,59.10
2017-09-29T09:05:10.740Z,55.90
2017-09-29T09:06:32.190Z,54.80
2017-09-29T09:07:54.424Z,53.10
2017-09-29T09:09:16.703Z,54.60
2017-09-29T09:10:37.369Z,51.00
2017-09-29T09:11:58.190Z,48.10
2017-09-29T09:13:18.841Z,47.50
2017-09-29T09:14:39.722Z,47.80
2017-09-29T09:16:01.179Z,45.90
2017-09-29T09:17:22.149Z,48.80
2017-09-29T09:18:43.555Z,49.30
2017-09-29T09:20:06.197Z,0.00
2017-09-29T09:21:27.615Z,48.50
2017-09-29T09:22:55.754Z,46.90
2017-09-29T09:24:17.291Z,48.50
2017-09-29T09:25:38.441Z,48.70
2017-09-29T09:26:59.316Z,48.40
2017-09-29T09:28:20.273Z,46.00
2017-09-29T09:29:41.312Z,44.60
2017-09-29T09:31:02.388Z,40.10
2017-09-29T09:32:23.165Z,44.10
2017-09-29T09:33:43.983Z,42.60
2017-09-29T09:35:05.025Z,41.40
2017-09-29T09:36:25.876Z,43.10
2017-09-29T09:37:46.963Z,43.70
2017-09-29T09:46:16.299Z,37.80
2017-09-29T09:47:37.871Z,38.80
2017-09-29T09:48:58.886Z,40.80
2017-09-29T09:50:20.011Z,38.40
2017-09-29T09:51:41.018Z,39.80
2017-09-29T09:53:02.484Z,40.00
2017-09-29T09:54:23.621Z,41.20
2017-09-29T09:55:44.668Z,39.10
2017-09-29T09:57:06.100Z,37.50
2017-09-29T09:58:28.290Z,36.80
2017-09-29T09:59:50.003Z,36.90
2017-09-29T10:01:11.518Z,37.90
2017-09-29T10:02:32.524Z,36.90
2017-09-29T10:03:53.405Z,38.90
2017-09-29T10:05:14.044Z,40.00
2017-09-29T10:06:34.856Z,38.50
2017-09-29T10:07:57.078Z,39.90
2017-09-29T10:09:18.079Z,37.30
2017-09-29T10:10:39.032Z,38.00
2017-09-29T10:11:59.952Z,35.40
2017-09-29T10:13:20.925Z,38.70
2017-09-29T10:14:42.529Z,35.60
2017-09-29T10:16:03.833Z,36.50
2017-09-29T10:17:24.646Z,36.30
2017-09-29T10:18:45.551Z,34.80
2017-09-29T10:20:06.517Z,34.60
2017-09-29T10:21:28.263Z,35.50
2017-09-29T10:22:48.996Z,36.00
2017-09-29T10:24:10.214Z,33.80
2017-09-29T10:25:31.063Z,34.00
2017-09-29T10:26:52.668Z,34.00
2017-09-29T10:28:13.590Z,33.00
2017-09-29T10:29:34.523Z,32.90
2017-09-29T10:30:55.367Z,32.50
2017-09-29T10:32:16.376Z,30.30
2017-09-29T10:33:37.978Z,29.00
2017-09-29T10:34:58.775Z,31.10
2017-09-29T10:36:19.512Z,31.60
2017-09-29T10:37:40.892Z,30.30
2017-09-29T10:39:01.819Z,31.30
2017-09-29T10:40:22.600Z,31.50
2017-09-29T10:41:43.401Z,32.70
2017-09-29T10:43:04.231Z,30.90
2017-09-29T10:44:25.108Z,32.00
2017-09-29T10:45:45.849Z,33.30
2017-09-29T10:47:06.964Z,31.70
2017-09-29T10:48:28.663Z,33.30
2017-09-29T10:49:49.416Z,33.50
2017-09-29T10:51:10.175Z,34.30
2017-09-29T10:52:30.913Z,34.30
2017-09-29T10:53:51.901Z,32.90
2017-09-29T10:55:13.058Z,34.90
2017-09-29T10:56:34.625Z,34.60
2017-09-29T10:57:55.477Z,32.00
2017-09-29T10:59:16.272Z,32.30
2017-09-29T11:00:37.741Z,31.90
2017-09-29T11:01:58.645Z,33.90
2017-09-29T11:03:19.679Z,31.20
2017-09-29T11:04:40.458Z,32.90
2017-09-29T11:06:01.461Z,31.80
2017-09-29T11:07:22.336Z,30.70
2017-09-29T11:08:43.200Z,30.30
2017-09-29T11:10:03.989Z,29.10
2017-09-29T11:11:24.824Z,30.20
2017-09-29T11:12:45.748Z,29.40
2017-09-29T11:14:06.515Z,29.90
2017-09-29T11:15:27.368Z,29.10
2017-09-29T11:16:48.998Z,29.50
2017-09-29T11:18:09.861Z,29.00
2017-09-29T11:19:30.620Z,26.80
2017-09-29T11:20:51.702Z,26.20
2017-09-29T11:22:13.338Z,26.40
2017-09-29T11:23:34.345Z,25.70
2017-09-29T11:24:55.200Z,26.70
2017-09-29T11:26:16.208Z,24.80
2017-09-29T11:27:37.256Z,23.80
2017-09-29T11:28:58.496Z,26.00
2017-09-29T11:30:19.435Z,23.90
2017-09-29T11:31:41.729Z,24.50
2017-09-29T11:33:02.976Z,23.20
2017-09-29T11:34:24.666Z,21.70
2017-09-29T11:35:47.067Z,23.80
2017-09-29T11:37:08.067Z,23.00
2017-09-29T11:38:29.549Z,22.00
2017-09-29T11:39:51.736Z,20.30
2017-09-29T11:55:33.897Z,17.60
2017-09-29T11:56:54.721Z,17.50
2017-09-29T11:58:16.444Z,16.80
2017-09-29T11:59:37.097Z,17.50
2017-09-29T12:00:58.138Z,17.50
2017-09-29T12:02:18.930Z,17.10
2017-09-29T12:03:39.725Z,17.50
2017-09-29T12:05:00.628Z,17.80
2017-09-29T12:06:21.352Z,17.90
2017-09-29T12:07:42.070Z,18.10
2017-09-29T12:09:02.973Z,20.40
2017-09-29T12:10:23.813Z,19.90
2017-09-29T12:11:44.553Z,20.90
2017-09-29T12:13:05.427Z,21.30
2017-09-29T12:14:26.186Z,21.80
2017-09-29T12:15:46.982Z,23.40
2017-09-29T12:17:07.878Z,22.10
2017-09-29T12:18:28.666Z,20.90
2017-09-29T12:19:49.650Z,20.70
2017-09-29T12:21:11.203Z,20.60
2017-09-29T12:22:31.888Z,20.30
2017-09-29T12:23:52.527Z,20.10
2017-09-29T12:25:13.388Z,20.90
2017-09-29T12:26:34.256Z,21.70
2017-09-29T12:27:55.557Z,21.00
2017-09-29T12:29:17.133Z,19.60
2017-09-29T12:30:49.985Z,20.20
2017-09-29T12:32:10.773Z,19.90
2017-09-29T12:33:32.879Z,20.80
2017-09-29T12:34:53.709Z,20.50
2017-09-29T12:36:14.469Z,20.60
2017-09-29T12:37:35.929Z,21.40
2017-09-29T12:38:56.912Z,20.20
2017-09-29T12:40:18.490Z,21.00
2017-09-29T12:41:39.682Z,22.20
2017-09-29T12:43:00.496Z,19.90
2017-09-29T12:44:21.678Z,19.70
2017-09-29T12:45:42.593Z,20.10
2017-09-29T12:47:03.435Z,19.90
2017-09-29T12:48:24.138Z,21.40
2017-09-29T12:49:45.228Z,20.50
2017-09-29T12:51:05.955Z,20.00
2017-09-29T12:52:26.657Z,18.90
2017-09-29T12:53:47.605Z,18.10
2017-09-29T12:55:08.412Z,19.10
2017-09-29T12:56:29.789Z,19.50
2017-09-29T12:57:51.169Z,18.60
2017-09-29T12:59:12.159Z,18.90
2017-09-29T13:00:33.135Z,18.70
2017-09-29T13:01:54.923Z,18.70
2017-09-29T13:03:15.884Z,18.50
2017-09-29T13:04:37.633Z,18.80
2017-09-29T13:05:59.095Z,18.30
2017-09-29T13:07:19.944Z,19.30
2017-09-29T13:08:41.840Z,20.10
2017-09-29T13:10:03.115Z,18.50
2017-09-29T13:11:24.558Z,20.40
2017-09-29T13:12:45.535Z,20.80
2017-09-29T13:14:06.420Z,28.70
2017-09-29T13:15:27.285Z,23.80
2017-09-29T13:16:48.182Z,20.90
2017-09-29T13:18:09.175Z,21.00
2017-09-29T13:19:30.708Z,24.60
2017-09-29T13:20:51.538Z,20.00
2017-09-29T13:22:12.410Z,20.70
2017-09-29T13:23:34.349Z,20.00
2017-09-29T13:24:55.957Z,19.30
2017-09-29T13:26:16.867Z,18.80
2017-09-29T13:27:37.879Z,19.20
2017-09-29T13:28:59.355Z,19.10
2017-09-29T13:36:02.215Z,18.70
2017-09-29T13:37:23.697Z,17.10
2017-09-29T13:38:44.550Z,16.50
2017-09-29T13:40:05.790Z,16.20
2017-09-29T13:41:27.083Z,15.30
2017-09-29T13:42:48.979Z,13.70
2017-09-29T13:44:09.757Z,14.70
2017-09-29T13:45:31.117Z,14.00
2017-09-29T13:46:52.857Z,14.30
2017-09-29T13:48:14.138Z,14.60
2017-09-29T13:49:35.953Z,14.40
2017-09-29T13:50:56.744Z,13.70
2017-09-29T13:52:17.756Z,12.70
2017-09-29T13:53:39.546Z,12.80
2017-09-29T13:55:00.539Z,13.80
2017-09-29T13:56:21.417Z,14.30
2017-09-29T13:57:42.398Z,13.40
2017-09-29T13:59:03.521Z,13.40
2017-09-29T14:00:24.396Z,13.60
2017-09-29T14:01:45.130Z,13.90
2017-09-29T14:03:06.264Z,13.00
2017-09-29T14:04:27.090Z,13.60
2017-09-29T14:05:49.146Z,13.10
2017-09-29T14:07:12.113Z,13.50
2017-09-29T14:08:33.560Z,12.20
2017-09-29T14:09:54.400Z,12.20
2017-09-29T14:11:15.777Z,12.00
2017-09-29T14:12:36.789Z,13.50
2017-09-29T14:13:57.577Z,13.40
2017-09-29T14:15:18.423Z,12.20
2017-09-29T14:25:35.103Z,12.50
2017-09-29T14:26:56.009Z,13.50
2017-09-29T14:28:17.191Z,14.80
2017-09-29T14:29:38.191Z,13.70
2017-09-29T14:30:59.132Z,13.90
2017-09-29T14:32:21.022Z,13.50
2017-09-29T14:33:41.765Z,12.60
2017-09-29T14:35:02.726Z,13.00
2017-09-29T14:36:24.023Z,13.50
2017-09-29T14:37:46.021Z,13.20
2017-09-29T14:39:06.918Z,13.20
2017-09-29T14:40:27.590Z,12.40
2017-09-29T14:41:48.453Z,13.10
2017-09-29T14:43:10.099Z,13.00
2017-09-29T14:44:30.976Z,13.70
2017-09-29T14:45:51.812Z,12.80
2017-09-29T14:47:12.750Z,12.30
2017-09-29T14:48:33.468Z,12.70
2017-09-29T14:49:54.516Z,12.70
2017-09-29T14:51:15.551Z,12.10
2017-09-29T14:52:36.410Z,13.20
2017-09-29T14:53:57.447Z,12.60
2017-09-29T14:55:18.949Z,11.90
2017-09-29T14:56:39.702Z,12.20
2017-09-29T14:58:00.586Z,11.50
2017-09-29T14:59:21.477Z,12.00
2017-09-29T15:00:42.373Z,11.90
2017-09-29T15:02:03.994Z,10.90
2017-09-29T15:03:24.960Z,11.00
2017-09-29T15:04:45.807Z,11.40
2017-09-29T15:06:06.707Z,11.00
2017-09-29T15:07:27.646Z,10.30
2017-09-29T15:08:48.485Z,10.10
2017-09-29T15:10:09.177Z,10.40
2017-09-29T15:11:29.909Z,10.60
2017-09-29T15:12:50.962Z,10.30
2017-09-29T15:14:13.149Z,11.50
2017-09-29T15:15:34.173Z,10.70
2017-09-29T15:16:54.933Z,10.40
2017-09-29T15:18:16.121Z,11.50
2017-09-29T15:19:37.069Z,10.70
2017-09-29T15:20:57.969Z,11.30
2017-09-29T15:25:52.159Z,11.80
2017-09-29T15:27:13.766Z,11.70
2017-09-29T15:28:46.442Z,13.50
2017-09-29T15:30:18.783Z,12.30
2017-09-29T15:31:42.377Z,11.80
2017-09-29T15:33:03.506Z,11.60
2017-09-29T15:34:26.628Z,11.20
2017-09-29T15:35:47.857Z,11.70
2017-09-29T15:37:11.045Z,12.00
2017-09-29T15:38:31.985Z,0.00
2017-09-29T15:39:52.656Z,11.00
2017-09-29T15:41:13.697Z,11.20
2017-09-29T15:42:34.597Z,10.40
2017-09-29T15:43:55.404Z,11.30
2017-09-29T15:45:16.733Z,11.60
2017-09-29T15:46:37.566Z,11.00
2017-09-29T15:47:58.400Z,11.50
2017-09-29T15:49:19.879Z,11.40
2017-09-29T15:50:41.954Z,12.10
2017-09-29T15:52:03.696Z,11.80
2017-09-29T15:53:25.020Z,10.90
2017-09-29T15:54:46.955Z,10.90
2017-09-29T15:56:08.368Z,12.20
2017-09-29T15:57:30.058Z,11.30
2017-09-29T15:58:51.346Z,11.80
2017-09-29T16:00:13.343Z,12.20
2017-09-29T16:01:34.809Z,11.60
2017-09-29T16:03:00.810Z,11.10
2017-09-29T16:04:22.443Z,12.10
2017-09-29T16:05:43.842Z,12.70
2017-09-29T16:07:06.638Z,11.50
2017-09-29T16:08:28.949Z,11.90
2017-09-29T16:09:53.687Z,12.10
2017-09-29T16:11:16.306Z,12.40
2017-09-29T16:12:38.368Z,12.60
2017-09-29T16:14:00.043Z,12.50
2017-09-29T16:15:21.601Z,12.10
2017-09-29T16:16:43.215Z,13.20
2017-09-29T16:18:05.677Z,11.30
2017-09-29T16:19:27.006Z,12.60
2017-09-29T16:20:49.019Z,12.50
2017-09-29T16:22:10.489Z,13.10
2017-09-29T16:23:31.367Z,12.20
2017-09-29T16:24:52.363Z,13.10
2017-09-29T16:26:13.254Z,13.10
2017-09-29T16:27:33.847Z,13.20
2017-09-29T16:28:55.374Z,13.20
2017-09-29T16:30:16.155Z,14.30
2017-09-29T16:31:39.101Z,14.50
2017-09-29T16:33:00.657Z,14.70
2017-09-29T16:34:21.618Z,14.30
2017-09-29T16:35:42.675Z,14.10
2017-09-29T16:37:03.424Z,15.40
2017-09-29T16:38:24.142Z,15.40
2017-09-29T16:39:44.780Z,16.00
2017-09-29T16:41:06.420Z,16.40
2017-09-29T16:42:28.168Z,16.70
2017-09-29T16:43:49.004Z,17.90
2017-09-29T16:45:09.994Z,17.90
2017-09-29T16:46:30.727Z,18.20
2017-09-29T16:47:51.555Z,18.00
2017-09-29T16:49:13.719Z,19.10
2017-09-29T16:50:35.297Z,17.90
2017-09-29T16:51:56.134Z,18.60
2017-09-29T16:53:17.686Z,19.10
2017-09-29T16:54:38.622Z,19.70
2017-09-29T16:55:59.734Z,20.60
2017-09-29T16:57:20.739Z,20.00
2017-09-29T16:58:41.645Z,19.20
2017-09-29T17:00:04.434Z,19.90
2017-09-29T17:01:26.954Z,20.00
2017-09-29T17:02:50.868Z,20.60
2017-09-29T17:04:13.845Z,0.00
2017-09-29T17:05:36.792Z,20.60
2017-09-29T17:06:59.138Z,20.50
2017-09-29T17:08:21.134Z,19.90
2017-09-29T17:09:43.264Z,20.90
2017-09-29T17:11:05.850Z,21.00
2017-09-29T17:12:27.742Z,20.50
2017-09-29T17:13:49.714Z,21.30
2017-09-29T17:15:12.915Z,21.40
2017-09-29T17:16:36.064Z,20.40
2017-09-29T17:17:58.527Z,21.20
2017-09-29T17:19:20.372Z,20.70
2017-09-29T17:20:42.171Z,21.80
2017-09-29T17:22:03.690Z,21.40
2017-09-29T17:23:25.317Z,22.20
2017-09-29T17:24:48.040Z,21.00
2017-09-29T17:26:10.620Z,21.50
2017-09-29T17:27:32.653Z,22.60
2017-09-29T17:28:54.552Z,22.70
2017-09-29T17:30:16.742Z,21.90
2017-09-29T17:31:39.037Z,21.20
2017-09-29T17:33:01.518Z,21.60
2017-09-29T17:34:23.233Z,23.90
2017-09-29T17:35:45.748Z,26.10
2017-09-29T17:37:08.657Z,25.00
2017-09-29T17:38:30.495Z,24.90
2017-09-29T17:39:53.421Z,25.20
2017-09-29T17:41:15.355Z,25.80
2017-09-29T17:42:38.213Z,25.50
2017-09-29T17:44:00.729Z,22.30
2017-09-29T17:45:22.535Z,24.50
2017-09-29T17:48:15.379Z,26.90
2017-09-29T17:49:44.651Z,23.50
2017-09-29T17:51:05.439Z,22.40
2017-09-29T17:52:26.243Z,23.30
2017-09-29T17:53:47.830Z,22.30
2017-09-29T17:55:08.680Z,22.70
2017-09-29T17:56:30.643Z,22.00
2017-09-29T17:57:53.399Z,22.00
2017-09-29T17:59:15.630Z,21.60
2017-09-29T18:00:37.151Z,20.70
2017-09-29T18:01:58.883Z,21.00
2017-09-29T18:03:20.571Z,21.10
2017-09-29T18:04:44.047Z,21.30
2017-09-29T18:06:07.082Z,20.80
2017-09-29T18:07:29.330Z,19.60
2017-09-29T18:08:50.326Z,20.70
2017-09-29T18:10:10.966Z,20.90
2017-09-29T18:11:31.812Z,19.60
2017-09-29T18:15:22.340Z,19.50
2017-09-29T18:16:44.332Z,19.90
2017-09-29T18:18:05.622Z,17.90